sensor_id;sensor_type;location;lat;lon;timestamp;P1;durP1;ratioP1;P2;durP2;ratioP2
5022;SDS011;2530;47.990;7.866;2023-04-01T00:00:05;0.75;;;0.40;;
5022;SDS011;2530;47.990;7.866;2023-04-01T00:02:31;1.67;;;0.40;;
5022;SDS011;2530;47.990;7.866;2023-04-01T00:04:57;1.17;;;0.47;;
5022;SDS011;2530;47.990;7.866;2023-04-01T00:07:22;0.70;;;0.30;;
5022;SDS011;2530;47.990;7.866;2023-04-01T00:09:48;1.13;;;0.40;;
5022;SDS011;2530;47.990;7.866;2023-04-01T00:12:13;1.20;;;0.40;;
5022;SDS011;2530;47.990;7.866;2023-04-01T00:14:39;0.50;;;0.40;;
5022;SDS011;2530;47.990;7.866;2023-04-01T00:17:05;1.13;;;0.50;;
5022;SDS011;2530;47.990;7.866;2023-04-01T00:19:30;1.40;;;0.40;;
5022;SDS011;2530;47.990;7.866;2023-04-01T00:21:57;1.63;;;1.20;;
5022;SDS011;2530;47.990;7.866;2023-04-01T00:24:23;1.23;;;0.70;;
5022;SDS011;2530;47.990;7.866;2023-04-01T00:26:48;1.13;;;0.50;;
5022;SDS011;2530;47.990;7.866;2023-04-01T00:29:14;1.60;;;0.60;;
5022;SDS011;2530;47.990;7.866;2023-04-01T00:31:40;1.80;;;0.60;;
5022;SDS011;2530;47.990;7.866;2023-04-01T00:34:05;2.50;;;0.60;;
5022;SDS011;2530;47.990;7.866;2023-04-01T00:36:31;1.80;;;0.60;;
5022;SDS011;2530;47.990;7.866;2023-04-01T00:38:57;3.20;;;0.80;;
5022;SDS011;2530;47.990;7.866;2023-04-01T00:41:23;4.50;;;1.20;;
5022;SDS011;2530;47.990;7.866;2023-04-01T00:43:51;3.45;;;1.10;;
5022;SDS011;2530;47.990;7.866;2023-04-01T00:46:17;2.15;;;0.90;;
5022;SDS011;2530;47.990;7.866;2023-04-01T00:49:01;5.45;;;1.35;;
5022;SDS011;2530;47.990;7.866;2023-04-01T00:51:27;4.13;;;1.10;;
5022;SDS011;2530;47.990;7.866;2023-04-01T00:53:56;4.30;;;0.90;;
5022;SDS011;2530;47.990;7.866;2023-04-01T00:56:40;3.95;;;1.20;;
5022;SDS011;2530;47.990;7.866;2023-04-01T00:59:11;2.28;;;1.08;;
5022;SDS011;2530;47.990;7.866;2023-04-01T01:01:43;2.65;;;1.02;;
5022;SDS011;2530;47.990;7.866;2023-04-01T01:04:20;5.40;;;1.70;;
5022;SDS011;2530;47.990;7.866;2023-04-01T01:12:43;6.80;;;1.43;;
5022;SDS011;2530;47.990;7.866;2023-04-01T01:15:16;4.25;;;1.40;;
5022;SDS011;2530;47.990;7.866;2023-04-01T01:37:01;6.43;;;2.53;;
5022;SDS011;2530;47.990;7.866;2023-04-01T01:39:31;10.18;;;3.20;;
5022;SDS011;2530;47.990;7.866;2023-04-01T01:42:00;8.38;;;2.03;;
5022;SDS011;2530;47.990;7.866;2023-04-01T01:44:29;3.95;;;1.70;;
5022;SDS011;2530;47.990;7.866;2023-04-01T01:46:57;5.22;;;1.70;;
5022;SDS011;2530;47.990;7.866;2023-04-01T01:49:23;5.80;;;1.77;;
5022;SDS011;2530;47.990;7.866;2023-04-01T01:51:49;5.70;;;2.10;;
5022;SDS011;2530;47.990;7.866;2023-04-01T01:54:18;4.47;;;1.50;;
5022;SDS011;2530;47.990;7.866;2023-04-01T01:56:45;4.55;;;1.67;;
5022;SDS011;2530;47.990;7.866;2023-04-01T01:59:14;8.30;;;2.20;;
5022;SDS011;2530;47.990;7.866;2023-04-01T02:01:42;4.37;;;1.73;;
5022;SDS011;2530;47.990;7.866;2023-04-01T02:04:11;7.90;;;1.60;;
5022;SDS011;2530;47.990;7.866;2023-04-01T02:06:40;5.30;;;1.50;;
5022;SDS011;2530;47.990;7.866;2023-04-01T02:09:10;5.30;;;1.60;;
5022;SDS011;2530;47.990;7.866;2023-04-01T02:11:41;6.88;;;2.00;;
5022;SDS011;2530;47.990;7.866;2023-04-01T02:16:59;7.65;;;1.70;;
5022;SDS011;2530;47.990;7.866;2023-04-01T02:19:32;5.72;;;1.75;;
5022;SDS011;2530;47.990;7.866;2023-04-01T02:22:03;3.67;;;1.38;;
5022;SDS011;2530;47.990;7.866;2023-04-01T02:24:31;6.45;;;1.65;;
5022;SDS011;2530;47.990;7.866;2023-04-01T02:26:59;5.97;;;2.00;;
5022;SDS011;2530;47.990;7.866;2023-04-01T02:29:25;9.23;;;2.20;;
5022;SDS011;2530;47.990;7.866;2023-04-01T02:31:51;8.77;;;2.40;;
5022;SDS011;2530;47.990;7.866;2023-04-01T02:37:24;7.32;;;2.10;;
5022;SDS011;2530;47.990;7.866;2023-04-01T02:39:49;7.53;;;1.73;;
5022;SDS011;2530;47.990;7.866;2023-04-01T02:42:15;5.03;;;1.70;;
5022;SDS011;2530;47.990;7.866;2023-04-01T02:44:40;4.70;;;1.50;;
5022;SDS011;2530;47.990;7.866;2023-04-01T02:47:06;2.20;;;1.70;;
5022;SDS011;2530;47.990;7.866;2023-04-01T02:49:31;3.07;;;0.93;;
5022;SDS011;2530;47.990;7.866;2023-04-01T02:51:57;5.73;;;1.30;;
5022;SDS011;2530;47.990;7.866;2023-04-01T02:54:22;2.03;;;0.70;;
5022;SDS011;2530;47.990;7.866;2023-04-01T02:56:48;4.00;;;1.00;;
5022;SDS011;2530;47.990;7.866;2023-04-01T02:59:13;4.78;;;1.45;;
5022;SDS011;2530;47.990;7.866;2023-04-01T03:01:39;4.47;;;1.50;;
5022;SDS011;2530;47.990;7.866;2023-04-01T03:04:05;4.82;;;1.40;;
5022;SDS011;2530;47.990;7.866;2023-04-01T03:06:30;5.32;;;1.55;;
5022;SDS011;2530;47.990;7.866;2023-04-01T03:08:56;8.03;;;2.30;;
5022;SDS011;2530;47.990;7.866;2023-04-01T03:11:22;4.68;;;1.85;;
5022;SDS011;2530;47.990;7.866;2023-04-01T03:13:47;7.90;;;2.20;;
5022;SDS011;2530;47.990;7.866;2023-04-01T03:16:13;5.80;;;2.00;;
5022;SDS011;2530;47.990;7.866;2023-04-01T03:18:39;5.15;;;1.85;;
5022;SDS011;2530;47.990;7.866;2023-04-01T03:21:18;6.35;;;1.70;;
5022;SDS011;2530;47.990;7.866;2023-04-01T03:23:45;6.13;;;1.40;;
5022;SDS011;2530;47.990;7.866;2023-04-01T03:26:11;6.47;;;1.60;;
5022;SDS011;2530;47.990;7.866;2023-04-01T03:28:37;4.97;;;1.63;;
5022;SDS011;2530;47.990;7.866;2023-04-01T03:31:02;5.47;;;1.23;;
5022;SDS011;2530;47.990;7.866;2023-04-01T03:33:28;3.20;;;0.97;;
5022;SDS011;2530;47.990;7.866;2023-04-01T03:35:54;3.10;;;1.58;;
5022;SDS011;2530;47.990;7.866;2023-04-01T03:38:19;3.85;;;1.08;;
5022;SDS011;2530;47.990;7.866;2023-04-01T03:40:45;2.92;;;1.10;;
5022;SDS011;2530;47.990;7.866;2023-04-01T03:43:10;4.70;;;1.15;;
5022;SDS011;2530;47.990;7.866;2023-04-01T03:45:43;3.20;;;0.90;;
5022;SDS011;2530;47.990;7.866;2023-04-01T03:48:12;5.78;;;1.17;;
5022;SDS011;2530;47.990;7.866;2023-04-01T03:50:41;4.20;;;1.40;;
5022;SDS011;2530;47.990;7.866;2023-04-01T03:53:07;4.38;;;1.08;;
5022;SDS011;2530;47.990;7.866;2023-04-01T03:55:33;5.20;;;1.20;;
5022;SDS011;2530;47.990;7.866;2023-04-01T03:58:00;4.20;;;1.30;;
5022;SDS011;2530;47.990;7.866;2023-04-01T04:00:27;3.40;;;1.10;;
5022;SDS011;2530;47.990;7.866;2023-04-01T04:02:56;4.72;;;1.10;;
5022;SDS011;2530;47.990;7.866;2023-04-01T04:05:22;3.70;;;1.20;;
5022;SDS011;2530;47.990;7.866;2023-04-01T04:07:49;3.33;;;0.90;;
5022;SDS011;2530;47.990;7.866;2023-04-01T04:10:14;2.20;;;1.00;;
5022;SDS011;2530;47.990;7.866;2023-04-01T04:12:40;3.00;;;1.00;;
5022;SDS011;2530;47.990;7.866;2023-04-01T04:15:06;3.10;;;0.93;;
5022;SDS011;2530;47.990;7.866;2023-04-01T04:17:32;2.10;;;0.70;;
5022;SDS011;2530;47.990;7.866;2023-04-01T04:19:58;1.83;;;0.70;;
5022;SDS011;2530;47.990;7.866;2023-04-01T04:22:23;1.90;;;1.27;;
5022;SDS011;2530;47.990;7.866;2023-04-01T04:24:49;2.97;;;1.10;;
5022;SDS011;2530;47.990;7.866;2023-04-01T04:27:14;2.78;;;0.70;;
5022;SDS011;2530;47.990;7.866;2023-04-01T04:29:40;4.28;;;0.85;;
5022;SDS011;2530;47.990;7.866;2023-04-01T04:32:05;3.57;;;1.00;;
5022;SDS011;2530;47.990;7.866;2023-04-01T04:34:31;2.17;;;0.70;;
5022;SDS011;2530;47.990;7.866;2023-04-01T04:36:57;4.20;;;1.10;;
5022;SDS011;2530;47.990;7.866;2023-04-01T04:39:22;2.28;;;1.10;;
5022;SDS011;2530;47.990;7.866;2023-04-01T04:41:48;2.97;;;0.80;;
5022;SDS011;2530;47.990;7.866;2023-04-01T04:44:14;5.15;;;1.45;;
5022;SDS011;2530;47.990;7.866;2023-04-01T04:46:39;3.40;;;1.20;;
5022;SDS011;2530;47.990;7.866;2023-04-01T04:49:05;2.15;;;0.90;;
5022;SDS011;2530;47.990;7.866;2023-04-01T04:51:31;4.78;;;1.42;;
5022;SDS011;2530;47.990;7.866;2023-04-01T04:54:01;3.17;;;1.15;;
5022;SDS011;2530;47.990;7.866;2023-04-01T04:56:27;3.97;;;1.20;;
5022;SDS011;2530;47.990;7.866;2023-04-01T04:58:52;4.40;;;1.30;;
5022;SDS011;2530;47.990;7.866;2023-04-01T05:01:18;4.73;;;1.90;;
5022;SDS011;2530;47.990;7.866;2023-04-01T05:03:44;4.93;;;1.40;;
5022;SDS011;2530;47.990;7.866;2023-04-01T05:06:11;8.50;;;1.30;;
5022;SDS011;2530;47.990;7.866;2023-04-01T05:08:38;1.55;;;0.80;;
5022;SDS011;2530;47.990;7.866;2023-04-01T05:11:06;5.53;;;1.05;;
5022;SDS011;2530;47.990;7.866;2023-04-01T05:13:34;5.80;;;1.30;;
5022;SDS011;2530;47.990;7.866;2023-04-01T05:16:00;3.83;;;1.30;;
5022;SDS011;2530;47.990;7.866;2023-04-01T05:18:26;2.78;;;1.00;;
5022;SDS011;2530;47.990;7.866;2023-04-01T05:20:52;2.40;;;1.00;;
5022;SDS011;2530;47.990;7.866;2023-04-01T05:23:19;2.72;;;1.10;;
5022;SDS011;2530;47.990;7.866;2023-04-01T05:25:47;3.28;;;1.05;;
5022;SDS011;2530;47.990;7.866;2023-04-01T05:28:13;3.97;;;1.00;;
5022;SDS011;2530;47.990;7.866;2023-04-01T05:30:40;4.10;;;1.00;;
5022;SDS011;2530;47.990;7.866;2023-04-01T05:33:07;2.60;;;0.80;;
5022;SDS011;2530;47.990;7.866;2023-04-01T05:35:33;2.60;;;1.23;;
5022;SDS011;2530;47.990;7.866;2023-04-01T05:37:58;2.47;;;0.90;;
5022;SDS011;2530;47.990;7.866;2023-04-01T05:40:24;4.00;;;1.50;;
5022;SDS011;2530;47.990;7.866;2023-04-01T05:42:50;4.18;;;0.93;;
5022;SDS011;2530;47.990;7.866;2023-04-01T05:45:15;3.20;;;1.00;;
5022;SDS011;2530;47.990;7.866;2023-04-01T05:47:41;3.10;;;1.00;;
5022;SDS011;2530;47.990;7.866;2023-04-01T05:50:07;2.88;;;1.00;;
5022;SDS011;2530;47.990;7.866;2023-04-01T05:52:35;3.22;;;1.00;;
5022;SDS011;2530;47.990;7.866;2023-04-01T05:55:01;3.83;;;1.10;;
5022;SDS011;2530;47.990;7.866;2023-04-01T05:57:27;5.22;;;1.20;;
5022;SDS011;2530;47.990;7.866;2023-04-01T05:59:52;2.80;;;0.93;;
5022;SDS011;2530;47.990;7.866;2023-04-01T06:02:18;2.53;;;1.03;;
5022;SDS011;2530;47.990;7.866;2023-04-01T06:04:44;3.92;;;0.90;;
5022;SDS011;2530;47.990;7.866;2023-04-01T06:07:11;4.30;;;1.50;;
5022;SDS011;2530;47.990;7.866;2023-04-01T06:09:40;3.88;;;1.00;;
5022;SDS011;2530;47.990;7.866;2023-04-01T06:23:58;2.30;;;1.08;;
5022;SDS011;2530;47.990;7.866;2023-04-01T06:27:27;1.65;;;0.77;;
5022;SDS011;2530;47.990;7.866;2023-04-01T06:54:48;2.90;;;1.30;;
5022;SDS011;2530;47.990;7.866;2023-04-01T06:59:49;2.00;;;0.60;;
5022;SDS011;2530;47.990;7.866;2023-04-01T07:02:29;1.30;;;0.70;;
5022;SDS011;2530;47.990;7.866;2023-04-01T07:05:03;2.10;;;0.60;;
5022;SDS011;2530;47.990;7.866;2023-04-01T07:07:35;2.10;;;0.90;;
5022;SDS011;2530;47.990;7.866;2023-04-01T07:10:23;3.07;;;1.00;;
5022;SDS011;2530;47.990;7.866;2023-04-01T07:12:59;1.30;;;0.60;;
5022;SDS011;2530;47.990;7.866;2023-04-01T07:15:36;2.80;;;0.80;;
5022;SDS011;2530;47.990;7.866;2023-04-01T07:18:09;3.63;;;1.08;;
5022;SDS011;2530;47.990;7.866;2023-04-01T07:20:57;2.60;;;0.80;;
5022;SDS011;2530;47.990;7.866;2023-04-01T07:23:33;2.30;;;0.70;;
5022;SDS011;2530;47.990;7.866;2023-04-01T07:29:01;1.48;;;0.85;;
5022;SDS011;2530;47.990;7.866;2023-04-01T07:47:59;2.13;;;1.02;;
5022;SDS011;2530;47.990;7.866;2023-04-01T07:53:37;4.30;;;1.05;;
5022;SDS011;2530;47.990;7.866;2023-04-01T07:56:18;1.95;;;0.73;;
5022;SDS011;2530;47.990;7.866;2023-04-01T08:04:25;2.60;;;0.85;;
5022;SDS011;2530;47.990;7.866;2023-04-01T08:07:20;2.10;;;0.80;;
5022;SDS011;2530;47.990;7.866;2023-04-01T08:15:42;2.42;;;0.80;;
5022;SDS011;2530;47.990;7.866;2023-04-01T08:21:01;1.97;;;0.60;;
5022;SDS011;2530;47.990;7.866;2023-04-01T08:23:36;1.45;;;0.60;;
5022;SDS011;2530;47.990;7.866;2023-04-01T08:29:11;2.50;;;0.40;;
5022;SDS011;2530;47.990;7.866;2023-04-01T08:31:55;2.58;;;0.60;;
5022;SDS011;2530;47.990;7.866;2023-04-01T08:34:30;2.28;;;0.60;;
5022;SDS011;2530;47.990;7.866;2023-04-01T08:37:19;2.17;;;0.75;;
5022;SDS011;2530;47.990;7.866;2023-04-01T08:51:11;1.27;;;0.60;;
5022;SDS011;2530;47.990;7.866;2023-04-01T08:53:51;1.85;;;0.90;;
5022;SDS011;2530;47.990;7.866;2023-04-01T08:56:34;2.70;;;0.80;;
5022;SDS011;2530;47.990;7.866;2023-04-01T08:59:13;1.20;;;0.80;;
5022;SDS011;2530;47.990;7.866;2023-04-01T09:07:39;1.75;;;0.70;;
5022;SDS011;2530;47.990;7.866;2023-04-01T09:22:41;1.80;;;0.80;;
5022;SDS011;2530;47.990;7.866;2023-04-01T09:35:48;1.45;;;0.80;;
5022;SDS011;2530;47.990;7.866;2023-04-01T09:38:21;2.47;;;1.00;;
5022;SDS011;2530;47.990;7.866;2023-04-01T09:43:47;1.50;;;0.60;;
5022;SDS011;2530;47.990;7.866;2023-04-01T09:52:42;1.30;;;0.88;;
5022;SDS011;2530;47.990;7.866;2023-04-01T10:09:43;1.40;;;0.90;;
5022;SDS011;2530;47.990;7.866;2023-04-01T10:12:33;1.90;;;0.95;;
5022;SDS011;2530;47.990;7.866;2023-04-01T10:18:36;1.88;;;0.80;;
5022;SDS011;2530;47.990;7.866;2023-04-01T10:27:16;1.52;;;0.70;;
5022;SDS011;2530;47.990;7.866;2023-04-01T10:32:43;1.50;;;0.60;;
5022;SDS011;2530;47.990;7.866;2023-04-01T10:39:29;3.35;;;1.00;;
5022;SDS011;2530;47.990;7.866;2023-04-01T10:41:43;2.50;;;0.70;;
5022;SDS011;2530;47.990;7.866;2023-04-01T10:50:17;2.05;;;0.60;;
5022;SDS011;2530;47.990;7.866;2023-04-01T10:55:43;1.60;;;0.50;;
5022;SDS011;2530;47.990;7.866;2023-04-01T11:09:44;1.80;;;0.60;;
5022;SDS011;2530;47.990;7.866;2023-04-01T11:12:55;0.55;;;0.50;;
5022;SDS011;2530;47.990;7.866;2023-04-01T11:23:50;2.90;;;0.60;;
5022;SDS011;2530;47.990;7.866;2023-04-01T11:26:19;1.10;;;0.60;;
5022;SDS011;2530;47.990;7.866;2023-04-01T11:43:21;1.23;;;0.90;;
5022;SDS011;2530;47.990;7.866;2023-04-01T11:46:17;1.92;;;0.90;;
5022;SDS011;2530;47.990;7.866;2023-04-01T11:51:55;1.50;;;0.60;;
5022;SDS011;2530;47.990;7.866;2023-04-01T11:57:09;1.55;;;0.80;;
5022;SDS011;2530;47.990;7.866;2023-04-01T11:59:51;0.93;;;0.60;;
5022;SDS011;2530;47.990;7.866;2023-04-01T12:05:11;1.55;;;0.60;;
5022;SDS011;2530;47.990;7.866;2023-04-01T12:07:45;1.38;;;0.70;;
5022;SDS011;2530;47.990;7.866;2023-04-01T12:16:15;1.13;;;0.70;;
5022;SDS011;2530;47.990;7.866;2023-04-01T12:21:38;1.60;;;0.60;;
5022;SDS011;2530;47.990;7.866;2023-04-01T12:24:34;1.20;;;0.50;;
5022;SDS011;2530;47.990;7.866;2023-04-01T12:27:07;0.90;;;0.50;;
5022;SDS011;2530;47.990;7.866;2023-04-01T12:38:44;1.40;;;0.50;;
5022;SDS011;2530;47.990;7.866;2023-04-01T12:41:17;1.42;;;0.60;;
5022;SDS011;2530;47.990;7.866;2023-04-01T12:46:41;1.60;;;0.50;;
5022;SDS011;2530;47.990;7.866;2023-04-01T12:49:39;1.30;;;0.60;;
5022;SDS011;2530;47.990;7.866;2023-04-01T12:52:42;1.40;;;1.10;;
5022;SDS011;2530;47.990;7.866;2023-04-01T13:01:03;1.30;;;0.60;;
5022;SDS011;2530;47.990;7.866;2023-04-01T13:03:59;1.05;;;0.60;;
5022;SDS011;2530;47.990;7.866;2023-04-01T13:12:33;1.10;;;0.60;;
5022;SDS011;2530;47.990;7.866;2023-04-01T13:18:20;1.80;;;0.90;;
5022;SDS011;2530;47.990;7.866;2023-04-01T13:26:01;1.80;;;0.60;;
5022;SDS011;2530;47.990;7.866;2023-04-01T13:28:29;2.10;;;0.80;;
5022;SDS011;2530;47.990;7.866;2023-04-01T13:31:09;2.00;;;0.60;;
5022;SDS011;2530;47.990;7.866;2023-04-01T13:39:22;2.50;;;0.50;;
5022;SDS011;2530;47.990;7.866;2023-04-01T13:42:06;2.53;;;0.70;;
5022;SDS011;2530;47.990;7.866;2023-04-01T13:52:53;1.75;;;0.60;;
5022;SDS011;2530;47.990;7.866;2023-04-01T13:58:23;2.58;;;0.60;;
5022;SDS011;2530;47.990;7.866;2023-04-01T14:01:48;1.15;;;0.70;;
5022;SDS011;2530;47.990;7.866;2023-04-01T14:12:28;1.90;;;0.70;;
5022;SDS011;2530;47.990;7.866;2023-04-01T14:15:11;1.40;;;0.60;;
5022;SDS011;2530;47.990;7.866;2023-04-01T14:26:50;1.10;;;0.70;;
5022;SDS011;2530;47.990;7.866;2023-04-01T14:29:54;0.80;;;0.50;;
5022;SDS011;2530;47.990;7.866;2023-04-01T14:32:24;1.15;;;0.60;;
5022;SDS011;2530;47.990;7.866;2023-04-01T14:38:17;3.30;;;1.10;;
5022;SDS011;2530;47.990;7.866;2023-04-01T14:49:04;0.80;;;0.60;;
5022;SDS011;2530;47.990;7.866;2023-04-01T14:51:42;0.63;;;0.50;;
5022;SDS011;2530;47.990;7.866;2023-04-01T14:54:19;0.60;;;0.50;;
5022;SDS011;2530;47.990;7.866;2023-04-01T14:57:04;1.90;;;0.70;;
5022;SDS011;2530;47.990;7.866;2023-04-01T15:00:21;1.30;;;0.50;;
5022;SDS011;2530;47.990;7.866;2023-04-01T15:08:44;0.80;;;0.50;;
5022;SDS011;2530;47.990;7.866;2023-04-01T15:11:43;1.05;;;0.52;;
5022;SDS011;2530;47.990;7.866;2023-04-01T15:20:05;2.10;;;0.50;;
5022;SDS011;2530;47.990;7.866;2023-04-01T15:23:00;0.90;;;0.50;;
5022;SDS011;2530;47.990;7.866;2023-04-01T15:28:39;0.80;;;0.40;;
5022;SDS011;2530;47.990;7.866;2023-04-01T15:34:36;0.80;;;0.40;;
5022;SDS011;2530;47.990;7.866;2023-04-01T15:37:56;1.17;;;0.50;;
5022;SDS011;2530;47.990;7.866;2023-04-01T15:56:37;1.70;;;0.60;;
5022;SDS011;2530;47.990;7.866;2023-04-01T16:01:57;1.30;;;0.60;;
5022;SDS011;2530;47.990;7.866;2023-04-01T16:04:46;1.02;;;0.93;;
5022;SDS011;2530;47.990;7.866;2023-04-01T16:07:25;0.90;;;0.50;;
5022;SDS011;2530;47.990;7.866;2023-04-01T16:10:17;0.85;;;0.50;;
5022;SDS011;2530;47.990;7.866;2023-04-01T16:13:10;0.60;;;0.60;;
5022;SDS011;2530;47.990;7.866;2023-04-01T16:23:51;1.00;;;0.60;;
5022;SDS011;2530;47.990;7.866;2023-04-01T16:26:28;0.80;;;0.52;;
5022;SDS011;2530;47.990;7.866;2023-04-01T16:37:50;1.30;;;0.60;;
5022;SDS011;2530;47.990;7.866;2023-04-01T16:49:04;1.15;;;1.00;;
5022;SDS011;2530;47.990;7.866;2023-04-01T16:54:18;2.50;;;2.00;;
5022;SDS011;2530;47.990;7.866;2023-04-01T16:56:54;2.15;;;1.30;;
5022;SDS011;2530;47.990;7.866;2023-04-01T17:13:29;1.98;;;0.80;;
5022;SDS011;2530;47.990;7.866;2023-04-01T17:16:27;1.02;;;0.70;;
5022;SDS011;2530;47.990;7.866;2023-04-01T17:19:04;1.38;;;0.90;;
5022;SDS011;2530;47.990;7.866;2023-04-01T17:21:54;1.30;;;0.80;;
5022;SDS011;2530;47.990;7.866;2023-04-01T17:27:30;2.10;;;0.80;;
5022;SDS011;2530;47.990;7.866;2023-04-01T17:35:53;1.02;;;0.80;;
5022;SDS011;2530;47.990;7.866;2023-04-01T17:38:40;2.58;;;1.10;;
5022;SDS011;2530;47.990;7.866;2023-04-01T17:44:07;1.55;;;0.80;;
5022;SDS011;2530;47.990;7.866;2023-04-01T17:47:13;1.40;;;0.60;;
5022;SDS011;2530;47.990;7.866;2023-04-01T17:50:07;0.70;;;0.50;;
5022;SDS011;2530;47.990;7.866;2023-04-01T17:52:42;2.08;;;0.90;;
5022;SDS011;2530;47.990;7.866;2023-04-01T17:55:23;1.00;;;0.80;;
5022;SDS011;2530;47.990;7.866;2023-04-01T18:03:54;1.77;;;1.00;;
5022;SDS011;2530;47.990;7.866;2023-04-01T18:06:29;1.95;;;0.93;;
5022;SDS011;2530;47.990;7.866;2023-04-01T18:12:04;1.52;;;0.80;;
5022;SDS011;2530;47.990;7.866;2023-04-01T18:14:50;1.40;;;0.60;;
5022;SDS011;2530;47.990;7.866;2023-04-01T18:17:27;2.30;;;0.80;;
5022;SDS011;2530;47.990;7.866;2023-04-01T18:23:12;1.08;;;0.68;;
5022;SDS011;2530;47.990;7.866;2023-04-01T18:25:44;1.45;;;0.80;;
5022;SDS011;2530;47.990;7.866;2023-04-01T18:28:25;1.40;;;0.75;;
5022;SDS011;2530;47.990;7.866;2023-04-01T18:31:16;1.00;;;0.70;;
5022;SDS011;2530;47.990;7.866;2023-04-01T18:42:03;1.48;;;0.70;;
5022;SDS011;2530;47.990;7.866;2023-04-01T18:47:21;1.10;;;1.00;;
5022;SDS011;2530;47.990;7.866;2023-04-01T18:52:46;1.10;;;0.70;;
5022;SDS011;2530;47.990;7.866;2023-04-01T18:55:30;2.03;;;0.85;;
5022;SDS011;2530;47.990;7.866;2023-04-01T18:58:14;2.20;;;0.70;;
5022;SDS011;2530;47.990;7.866;2023-04-01T19:00:44;2.00;;;0.90;;
5022;SDS011;2530;47.990;7.866;2023-04-01T19:03:20;1.00;;;0.70;;
5022;SDS011;2530;47.990;7.866;2023-04-01T19:05:51;1.23;;;0.80;;
5022;SDS011;2530;47.990;7.866;2023-04-01T19:08:38;1.50;;;0.70;;
5022;SDS011;2530;47.990;7.866;2023-04-01T19:19:02;1.65;;;0.77;;
5022;SDS011;2530;47.990;7.866;2023-04-01T19:21:54;0.83;;;0.80;;
5022;SDS011;2530;47.990;7.866;2023-04-01T19:33:29;1.77;;;0.98;;
5022;SDS011;2530;47.990;7.866;2023-04-01T19:38:42;1.23;;;0.90;;
5022;SDS011;2530;47.990;7.866;2023-04-01T19:41:39;1.20;;;1.05;;
5022;SDS011;2530;47.990;7.866;2023-04-01T19:47:26;1.40;;;1.10;;
5022;SDS011;2530;47.990;7.866;2023-04-01T19:52:48;1.00;;;0.90;;
5022;SDS011;2530;47.990;7.866;2023-04-01T20:00:34;0.90;;;0.70;;
5022;SDS011;2530;47.990;7.866;2023-04-01T20:06:04;0.75;;;0.60;;
5022;SDS011;2530;47.990;7.866;2023-04-01T20:11:44;1.33;;;0.65;;
5022;SDS011;2530;47.990;7.866;2023-04-01T20:25:55;0.88;;;0.60;;
5022;SDS011;2530;47.990;7.866;2023-04-01T20:33:43;1.10;;;0.70;;
5022;SDS011;2530;47.990;7.866;2023-04-01T20:36:21;1.73;;;0.50;;
5022;SDS011;2530;47.990;7.866;2023-04-01T20:39:11;1.92;;;0.60;;
5022;SDS011;2530;47.990;7.866;2023-04-01T20:52:32;1.67;;;0.75;;
5022;SDS011;2530;47.990;7.866;2023-04-01T20:55:26;0.85;;;0.57;;
5022;SDS011;2530;47.990;7.866;2023-04-01T21:06:25;0.70;;;0.43;;
5022;SDS011;2530;47.990;7.866;2023-04-01T21:14:33;1.38;;;0.50;;
5022;SDS011;2530;47.990;7.866;2023-04-01T21:19:54;1.60;;;0.60;;
5022;SDS011;2530;47.990;7.866;2023-04-01T21:27:57;2.83;;;0.80;;
5022;SDS011;2530;47.990;7.866;2023-04-01T21:35:59;0.80;;;0.50;;
5022;SDS011;2530;47.990;7.866;2023-04-01T21:38:56;2.00;;;1.00;;
5022;SDS011;2530;47.990;7.866;2023-04-01T21:44:20;1.63;;;0.82;;
5022;SDS011;2530;47.990;7.866;2023-04-01T21:49:49;1.10;;;0.70;;
5022;SDS011;2530;47.990;7.866;2023-04-01T21:55:38;1.15;;;0.60;;
5022;SDS011;2530;47.990;7.866;2023-04-01T22:01:05;1.48;;;0.70;;
5022;SDS011;2530;47.990;7.866;2023-04-01T22:06:09;1.23;;;0.60;;
5022;SDS011;2530;47.990;7.866;2023-04-01T22:08:53;1.40;;;0.70;;
5022;SDS011;2530;47.990;7.866;2023-04-01T22:14:10;1.70;;;0.50;;
5022;SDS011;2530;47.990;7.866;2023-04-01T22:16:50;0.95;;;0.68;;
5022;SDS011;2530;47.990;7.866;2023-04-01T22:24:40;1.25;;;0.50;;
5022;SDS011;2530;47.990;7.866;2023-04-01T22:27:28;1.30;;;0.60;;
5022;SDS011;2530;47.990;7.866;2023-04-01T22:32:34;1.52;;;0.80;;
5022;SDS011;2530;47.990;7.866;2023-04-01T22:37:49;1.55;;;0.60;;
5022;SDS011;2530;47.990;7.866;2023-04-01T22:40:27;1.40;;;0.60;;
5022;SDS011;2530;47.990;7.866;2023-04-01T22:43:18;3.00;;;0.90;;
5022;SDS011;2530;47.990;7.866;2023-04-01T22:46:03;1.48;;;0.80;;
5022;SDS011;2530;47.990;7.866;2023-04-01T22:51:47;1.70;;;0.63;;
5022;SDS011;2530;47.990;7.866;2023-04-01T22:56:44;2.40;;;0.70;;
5022;SDS011;2530;47.990;7.866;2023-04-01T23:04:47;1.92;;;0.80;;
5022;SDS011;2530;47.990;7.866;2023-04-01T23:10:56;1.80;;;1.00;;
5022;SDS011;2530;47.990;7.866;2023-04-01T23:13:06;1.20;;;0.60;;
5022;SDS011;2530;47.990;7.866;2023-04-01T23:15:38;2.30;;;0.80;;
5022;SDS011;2530;47.990;7.866;2023-04-01T23:18:17;2.00;;;1.00;;
5022;SDS011;2530;47.990;7.866;2023-04-01T23:21:06;1.20;;;0.85;;
5022;SDS011;2530;47.990;7.866;2023-04-01T23:23:45;2.78;;;1.50;;
5022;SDS011;2530;47.990;7.866;2023-04-01T23:26:15;1.52;;;0.70;;
5022;SDS011;2530;47.990;7.866;2023-04-01T23:28:53;2.83;;;1.13;;
5022;SDS011;2530;47.990;7.866;2023-04-01T23:31:34;1.13;;;0.70;;
5022;SDS011;2530;47.990;7.866;2023-04-01T23:34:02;2.30;;;0.80;;
5022;SDS011;2530;47.990;7.866;2023-04-01T23:36:48;1.50;;;0.70;;
5022;SDS011;2530;47.990;7.866;2023-04-01T23:41:56;1.83;;;1.00;;
5022;SDS011;2530;47.990;7.866;2023-04-01T23:44:29;0.70;;;0.70;;
5022;SDS011;2530;47.990;7.866;2023-04-01T23:46:57;1.70;;;0.60;;
5022;SDS011;2530;47.990;7.866;2023-04-01T23:49:25;1.27;;;0.80;;
5022;SDS011;2530;47.990;7.866;2023-04-01T23:51:59;1.90;;;0.70;;
5022;SDS011;2530;47.990;7.866;2023-04-01T23:54:33;0.75;;;0.60;;
5022;SDS011;2530;47.990;7.866;2023-04-01T23:57:14;2.40;;;0.70;;
5022;SDS011;2530;47.990;7.866;2023-04-01T23:59:43;1.95;;;0.70;;
